Skip Navigation Links
NOAA logo - Click to go to the NOAA homepage
NOAA's National Weather Service
Alaska Aviation Weather Unit
  NWS logo - Click to go to the NWS homepage
Left Navbar Graphic     03 AKDT = 11 GMT

   
NOAA is celebrating 200 years of science, service, and stewardship. Visit the NOAA 200th celebration Web site to learn more.
USA.gov is the U.S. Government's official Web portal to all Federal, state and local government Web resources and services.
Facebook
NWS on Facebook

Important Change Regarding the AAWU Web Presence

 

Over the last several months, the AAWU has been working to navigate its webpages to a nationally supported server. Security, as well as other needs, have necessitated the change.  We have been given an extension for the site changeover while we diligently work at addressing feedback received. As of July 14, 2017, aawu.arh.noaa.gov will be discontinued. The new AAWU web address is weather.gov/aawu. It is now live and will run in-parallel with the old site until it is discontinued on July 14, 2017. Please continue to send any feedback or questions regarding the new webpages to nws.ar.aawu.webauthors@noaa.gov.  Thank you for your patience during this time of transition.
AAWU Home :: Display TAF Add Bookmark
TAF PAGK 230535Z 2306/2406  VRB05KT P6SM FEW025 SCT100
     FM231500 16005KT P6SM VCSH SCT040 OVC100
     FM231800 16007KT P6SM -RA BKN040
     FM232100 16012KT P6SM OVC050=

3564
FTAK31 PANC 230535
TAFANC
TAF
METAR PAGK 230553Z AUTO VRB03KT 10SM SCT055 SCT085 15/09 A2969 RMK AO2
     SLP056 T01500089 10194 20128 53008 TSNO=

METAR PAGK 230653Z AUTO 30005KT 10SM FEW080 12/09 A2970 RMK AO2 SLP062
     T01220089 TSNO=

METAR PAGK 230753Z AUTO 33004KT 7SM -RA SCT044 OVC060 11/10 A2971 RMK
     AO2 RAB13 SLP065 P0003 T01110100 TSNO=

METAR PAGK 230853Z AUTO 21004KT 10SM BKN060 OVC090 10/10 A2973 RMK
 AO2 RAE03 SLP070 P0000 60003 T01000100 401940072 53012 TSNO=

METAR PAGK 230953Z AUTO 00000KT 10SM OVC065 10/10 A2973 RMK AO2
     RAB0855E05 SLP071 P0000 T01000100 TSNO=

METAR PAGK 231053Z AUTO 20003KT 10SM -RA SCT065 OVC090 09/09 A2975
 RMK AO2 RAB26 SLP075 P0000 T00940094 TSNO=


NOAA's National Weather Service
Alaska Aviation Weather Unit
6930 Sand Lake Road
Anchorage, AK 99502-1845
Disclaimer
Credits
Glossary
Privacy Policy
About Us
Career Opportunities
Contact AAWU Internet Services Site last modified: April, 17th 2012